Pagina principale
METAR-TAF:

METAR-TAF

Aeroporti :

Aeroporto di Verona-Villafranca

Verona, Italia

latitudine: 45-23N, longitudine: 010-52E, altezza: 67 m

Osservazione

Il bollettino è stato emesso 31 minuti fa, alle 00:50 UTC
Vento 4 kt da ovest/sud-ovest
Temperature 12°C
Umidità 88%
Pressione 1003 hPa
Visibilità 10 km o più
nessuna nube inferiore a 1500 m e nessun cumulonembo

METAR: LIPX 160050Z 25004KT CAVOK 12/10 Q1003

Ora: 03:21 (01:21 UTC)

Previsione

Il bollettino è stato emesso 2 ore e 21 minuti fa, alle 23:00 UTC
Previsione valida dal 16 alle 00 UTC al 16 alle 24 UTC
Vento 12 kt da ovest
Visibilità 10 km o più
Nubi sparse ad un'altezza di 4000 ft
Evoluzione graduale
dal 16 alle 12 UTC al 16 alle 14 UTC
Vento 16 kt da est/nord-est
Temporaneamente
dal 16 alle 14 UTC al 16 alle 21 UTC
Vento 18 kt da est/nord-est con raffiche fino a 28 kt

TAF: LIPX 152300Z 1600/1624 26012KT 9999 SCT040 BECMG 1612/1614 07016KT TEMPO 1614/1621 07018G28KT

Osservazioni e previsioni meteorologiche di più di 4000 aeroporti (messaggi METAR e TAF).

Le stazioni disponibili sono rappresentate dai dischi gialli e rossi sulla carta.

Puntare il mouse per vedere il nome della stazione.

Clicca sopra per visualizzare le osservazioni e previsioni meteorologiche.

Per cambiare la mappa : fare clic sui pulsanti verdi con una croce nera per ingrandire, il pulsante verde con un trattino per diminuire, o sulla freccia verde per le mappe adiacenti.


METAR-TAF: